createdAt,value
2024-05-09T00:00:38.674Z,1.23
2024-05-09T00:01:32.782Z,1.23
2024-05-09T00:02:31.839Z,1.24
2024-05-09T00:03:31.768Z,1.24
2024-05-09T00:04:31.722Z,1.24
2024-05-09T00:05:31.780Z,1.24
2024-05-09T00:06:31.669Z,1.25
2024-05-09T00:07:31.660Z,1.24
2024-05-09T00:08:31.751Z,1.24
2024-05-09T00:09:31.637Z,1.25
2024-05-09T00:10:36.136Z,1.23
2024-05-09T00:11:32.686Z,1.24
2024-05-09T00:12:31.640Z,1.24
2024-05-09T00:13:31.625Z,1.24
2024-05-09T00:14:31.692Z,1.24
2024-05-09T00:15:31.629Z,1.23
2024-05-09T00:16:31.593Z,1.25
2024-05-09T00:17:31.788Z,1.24
2024-05-09T00:18:31.702Z,1.21
2024-05-09T00:19:31.817Z,1.25
2024-05-09T00:20:37.978Z,1.23
2024-05-09T00:21:32.556Z,1.24
2024-05-09T00:22:31.549Z,1.23
2024-05-09T00:23:31.658Z,1.24
2024-05-09T00:24:31.544Z,1.24
2024-05-09T00:25:31.526Z,1.22
2024-05-09T00:26:31.553Z,1.21
2024-05-09T00:27:31.515Z,1.25
2024-05-09T00:28:31.516Z,1.23
2024-05-09T00:29:31.552Z,1.22
2024-05-09T00:30:35.281Z,1.20
2024-05-09T00:31:32.489Z,1.20
2024-05-09T00:32:31.646Z,1.20
2024-05-09T00:33:31.684Z,1.21
2024-05-09T00:34:31.620Z,1.22
2024-05-09T00:35:31.504Z,1.21
2024-05-09T00:36:31.417Z,1.20
2024-05-09T00:37:31.427Z,1.21
2024-05-09T00:38:31.547Z,1.21
2024-05-09T00:39:31.405Z,1.22
2024-05-09T00:40:38.592Z,1.19
2024-05-09T00:41:32.414Z,1.19
2024-05-09T00:42:31.365Z,1.19
2024-05-09T00:43:31.351Z,1.19
2024-05-09T00:44:31.414Z,1.21
2024-05-09T00:45:31.343Z,1.20
2024-05-09T00:46:31.334Z,1.20
2024-05-09T00:47:31.519Z,1.19
2024-05-09T00:48:31.560Z,1.17
2024-05-09T00:49:31.441Z,1.19
2024-05-09T00:50:36.208Z,1.19
2024-05-09T00:51:32.296Z,1.19
2024-05-09T00:52:31.291Z,1.20
2024-05-09T00:53:31.452Z,1.19
2024-05-09T00:54:31.282Z,1.20
2024-05-09T00:55:31.282Z,1.21
2024-05-09T00:56:31.432Z,1.22
2024-05-09T00:57:31.265Z,1.22
2024-05-09T00:58:31.257Z,1.18
2024-05-09T00:59:31.302Z,1.17
2024-05-09T01:00:38.153Z,1.19
2024-05-09T01:01:32.309Z,1.19
2024-05-09T01:02:31.288Z,1.17
2024-05-09T01:03:31.377Z,1.19
2024-05-09T01:04:31.208Z,1.18
2024-05-09T01:05:31.204Z,1.20
2024-05-09T01:06:31.182Z,1.18
2024-05-09T01:07:31.178Z,1.17
2024-05-09T01:08:31.323Z,1.17
2024-05-09T01:09:31.127Z,1.19
2024-05-09T01:10:34.889Z,1.17
2024-05-09T01:11:31.190Z,1.17
2024-05-09T01:12:31.154Z,1.17
2024-05-09T01:13:31.079Z,1.17
2024-05-09T01:14:31.168Z,1.17
2024-05-09T01:15:31.053Z,1.17
2024-05-09T01:16:31.047Z,1.16
2024-05-09T01:17:31.253Z,1.16
2024-05-09T01:18:31.114Z,1.16
2024-05-09T01:19:31.279Z,1.15
2024-05-09T01:20:40.340Z,1.18
2024-05-09T01:21:31.989Z,1.18
2024-05-09T01:22:30.968Z,1.17
2024-05-09T01:23:31.070Z,1.16
2024-05-09T01:24:30.954Z,1.18
2024-05-09T01:25:30.947Z,1.17
2024-05-09T01:26:31.004Z,1.16
2024-05-09T01:27:30.918Z,1.13
2024-05-09T01:28:30.902Z,1.17
2024-05-09T01:29:30.899Z,1.17
2024-05-09T01:30:35.323Z,1.15
2024-05-09T01:31:31.922Z,1.15
2024-05-09T01:32:30.996Z,1.15
2024-05-09T01:33:31.068Z,1.15
2024-05-09T01:34:30.849Z,1.15
2024-05-09T01:35:30.874Z,1.14
2024-05-09T01:36:30.834Z,1.16
2024-05-09T01:37:30.880Z,1.14
2024-05-09T01:38:30.947Z,1.15
2024-05-09T01:39:30.824Z,1.14
2024-05-09T01:40:37.350Z,1.14
2024-05-09T01:41:31.831Z,1.14
2024-05-09T01:42:30.803Z,1.14
2024-05-09T01:43:30.783Z,1.15
2024-05-09T01:44:30.835Z,1.14
2024-05-09T01:45:30.754Z,1.13
2024-05-09T01:46:30.746Z,1.13
2024-05-09T01:47:30.957Z,1.15
2024-05-09T01:48:30.741Z,1.11
2024-05-09T01:49:30.906Z,1.15
2024-05-09T01:51:30.692Z,1.12
2024-05-09T01:52:30.673Z,1.12
2024-05-09T01:53:30.777Z,1.12
2024-05-09T01:54:30.669Z,1.11
2024-05-09T01:55:30.631Z,1.11
2024-05-09T01:56:30.890Z,1.10
2024-05-09T01:57:30.640Z,1.11
2024-05-09T01:58:30.616Z,1.13
2024-05-09T01:59:30.651Z,1.12
2024-05-09T02:00:38.206Z,1.11
2024-05-09T02:01:31.662Z,1.11
2024-05-09T02:02:31.631Z,1.12
2024-05-09T02:03:30.695Z,1.12
2024-05-09T02:04:30.867Z,1.13
2024-05-09T02:05:30.677Z,1.13
2024-05-09T02:06:30.561Z,1.14
2024-05-09T02:07:30.576Z,1.13
2024-05-09T02:08:30.626Z,1.12
2024-05-09T02:09:30.550Z,1.15
2024-05-09T02:10:32.934Z,1.12
2024-05-09T02:11:30.583Z,1.12
2024-05-09T02:12:30.623Z,1.10
2024-05-09T02:13:30.591Z,1.11
2024-05-09T02:14:30.598Z,1.14
2024-05-09T02:15:30.533Z,1.12
2024-05-09T02:16:30.517Z,1.11
2024-05-09T02:17:30.811Z,1.11
2024-05-09T02:18:30.592Z,1.11
2024-05-09T02:19:30.634Z,1.12
2024-05-09T02:20:35.931Z,1.12
2024-05-09T02:21:31.488Z,1.12
2024-05-09T02:22:30.477Z,1.11
2024-05-09T02:23:30.542Z,1.12
2024-05-09T02:24:30.466Z,1.12
2024-05-09T02:25:30.484Z,1.12
2024-05-09T02:26:30.517Z,1.09
2024-05-09T02:27:30.433Z,1.09
2024-05-09T02:28:30.422Z,1.08
2024-05-09T02:29:30.458Z,1.09
2024-05-09T02:30:38.522Z,1.09
2024-05-09T02:31:31.420Z,1.09
2024-05-09T02:32:30.582Z,1.09
2024-05-09T02:33:30.602Z,1.09
2024-05-09T02:34:30.444Z,1.11
2024-05-09T02:35:30.432Z,1.10
2024-05-09T02:36:30.361Z,1.09
2024-05-09T02:37:30.362Z,1.08
2024-05-09T02:38:30.513Z,1.08
2024-05-09T02:39:30.350Z,1.06
2024-05-09T02:40:36.721Z,1.09
2024-05-09T02:41:31.455Z,1.09
2024-05-09T02:42:30.331Z,1.09
2024-05-09T02:43:30.340Z,1.09
2024-05-09T02:44:30.380Z,1.09
2024-05-09T02:45:30.324Z,1.07
2024-05-09T02:46:30.303Z,1.10
2024-05-09T02:47:30.540Z,1.10
2024-05-09T02:48:30.380Z,1.09
2024-05-09T02:49:30.392Z,1.09
2024-05-09T02:50:37.330Z,1.08
2024-05-09T02:51:31.271Z,1.08
2024-05-09T02:52:30.283Z,1.09
2024-05-09T02:53:30.337Z,1.08
2024-05-09T02:54:30.280Z,1.08
2024-05-09T02:55:30.237Z,1.07
2024-05-09T02:56:30.325Z,1.07
2024-05-09T02:57:30.224Z,1.07
2024-05-09T02:58:30.214Z,1.08
2024-05-09T02:59:30.285Z,1.09
2024-05-09T03:00:38.071Z,1.05
2024-05-09T03:01:31.234Z,1.05
2024-05-09T03:02:30.228Z,1.06
2024-05-09T03:03:30.473Z,1.06
2024-05-09T03:04:30.182Z,1.05
2024-05-09T03:05:30.184Z,1.09
2024-05-09T03:06:30.135Z,1.06
2024-05-09T03:07:30.138Z,1.07
2024-05-09T03:08:30.136Z,1.06
2024-05-09T03:09:30.114Z,1.05
2024-05-09T03:10:35.637Z,1.06
2024-05-09T03:11:31.224Z,1.06
2024-05-09T03:12:30.125Z,1.06
2024-05-09T03:13:30.085Z,1.07
2024-05-09T03:14:30.238Z,1.06
2024-05-09T03:15:30.069Z,1.07
2024-05-09T03:16:30.060Z,1.04
2024-05-09T03:17:30.224Z,1.05
2024-05-09T03:18:30.140Z,1.05
2024-05-09T03:19:30.108Z,1.04
2024-05-09T03:21:30.018Z,1.05
2024-05-09T03:22:30.019Z,1.04
2024-05-09T03:23:30.048Z,1.05
2024-05-09T03:24:29.996Z,1.06
2024-05-09T03:25:30.011Z,1.04
2024-05-09T03:26:30.095Z,1.05
2024-05-09T03:27:30.131Z,1.04
2024-05-09T03:28:29.968Z,1.04
2024-05-09T03:29:29.989Z,1.03
2024-05-09T03:30:39.114Z,1.03
2024-05-09T03:31:30.974Z,1.03
2024-05-09T03:32:30.045Z,1.03
2024-05-09T03:33:30.170Z,1.03
2024-05-09T03:34:29.977Z,1.04
2024-05-09T03:35:30.013Z,1.03
2024-05-09T03:36:29.918Z,1.03
2024-05-09T03:37:29.912Z,1.02
2024-05-09T03:38:29.922Z,1.04
2024-05-09T03:39:29.892Z,1.02
2024-05-09T03:40:31.110Z,1.02
2024-05-09T03:41:30.076Z,1.02
2024-05-09T03:42:29.885Z,1.02
2024-05-09T03:43:29.863Z,1.03
2024-05-09T03:44:29.896Z,1.00
2024-05-09T03:45:29.862Z,1.01
2024-05-09T03:46:29.849Z,1.02
2024-05-09T03:47:29.968Z,1.01
2024-05-09T03:48:29.954Z,1.01
2024-05-09T03:49:29.961Z,0.99
2024-05-09T03:50:34.023Z,1.01
2024-05-09T03:51:30.834Z,1.01
2024-05-09T03:52:30.169Z,1.02
2024-05-09T03:53:29.850Z,1.02
2024-05-09T03:54:29.830Z,1.02
2024-05-09T03:55:29.877Z,1.04
2024-05-09T03:56:29.955Z,1.02
2024-05-09T03:57:29.823Z,1.02
2024-05-09T03:58:29.823Z,1.03
2024-05-09T03:59:29.995Z,1.01
2024-05-09T04:01:30.039Z,1.00
2024-05-09T04:02:29.901Z,1.01
2024-05-09T04:03:29.922Z,1.01
2024-05-09T04:04:29.926Z,1.01
2024-05-09T04:05:29.973Z,1.03
2024-05-09T04:06:29.795Z,1.02
2024-05-09T04:07:29.790Z,1.00
2024-05-09T04:08:29.912Z,1.01
2024-05-09T04:09:29.786Z,0.99
2024-05-09T04:10:33.412Z,1.01
2024-05-09T04:11:30.866Z,1.01
2024-05-09T04:12:29.854Z,1.01
2024-05-09T04:13:29.765Z,1.01
2024-05-09T04:14:29.926Z,1.02
2024-05-09T04:15:29.792Z,1.01
2024-05-09T04:16:29.755Z,1.02
2024-05-09T04:17:29.971Z,0.99
2024-05-09T04:18:29.837Z,1.00
2024-05-09T04:19:29.948Z,0.99
2024-05-09T04:20:37.493Z,1.01
2024-05-09T04:21:30.734Z,1.01
2024-05-09T04:22:29.733Z,1.01
2024-05-09T04:23:29.794Z,1.02
2024-05-09T04:24:29.732Z,1.01
2024-05-09T04:25:29.720Z,1.00
2024-05-09T04:26:29.846Z,1.01
2024-05-09T04:27:29.724Z,0.98
2024-05-09T04:28:29.727Z,0.99
2024-05-09T04:29:29.928Z,1.02
2024-05-09T04:31:37.001Z,0.50
2024-05-09T04:32:37.183Z,0.50
2024-05-09T04:33:37.140Z,0.50
2024-05-09T04:34:37.013Z,0.50
2024-05-09T04:35:37.138Z,0.50
2024-05-09T04:36:36.982Z,0.51
2024-05-09T04:37:36.972Z,0.51
2024-05-09T04:38:37.022Z,0.51
2024-05-09T04:39:36.947Z,0.51
2024-05-09T04:40:37.768Z,0.51
2024-05-09T04:41:36.959Z,0.50
2024-05-09T04:42:36.898Z,0.51
2024-05-09T04:43:36.895Z,0.50
2024-05-09T04:44:36.918Z,0.51
2024-05-09T04:45:36.872Z,0.50
2024-05-09T04:46:36.864Z,0.51
2024-05-09T04:47:37.071Z,0.51
2024-05-09T04:48:36.910Z,0.50
2024-05-09T04:49:36.963Z,0.51
2024-05-09T04:50:39.019Z,0.51
2024-05-09T04:51:36.794Z,0.52
2024-05-09T04:52:36.779Z,0.51
2024-05-09T04:53:36.878Z,0.51
2024-05-09T04:54:36.950Z,0.52
2024-05-09T04:55:36.812Z,0.52
2024-05-09T04:56:36.766Z,0.51
2024-05-09T04:57:36.724Z,0.51
2024-05-09T04:58:36.723Z,0.52
2024-05-09T04:59:36.765Z,0.52
2024-05-09T05:00:38.323Z,0.50
2024-05-09T05:01:37.002Z,0.50
2024-05-09T05:02:37.028Z,0.50
2024-05-09T05:03:37.194Z,0.51
2024-05-09T05:04:37.029Z,0.51
2024-05-09T05:05:37.081Z,0.52
2024-05-09T05:06:37.100Z,0.51
2024-05-09T05:07:37.156Z,0.52
2024-05-09T05:08:37.329Z,0.51
2024-05-09T05:09:37.249Z,0.52
2024-05-09T05:10:37.303Z,0.51
2024-05-09T05:11:37.436Z,0.50
2024-05-09T05:12:37.394Z,0.50
2024-05-09T05:13:40.881Z,0.52
2024-05-09T05:14:37.497Z,0.52
2024-05-09T05:15:37.424Z,0.52
2024-05-09T05:16:37.412Z,0.51
2024-05-09T05:17:37.605Z,0.52
2024-05-09T05:18:37.495Z,0.51
2024-05-09T05:19:37.501Z,0.52
2024-05-09T05:20:37.458Z,0.51
2024-05-09T05:21:37.410Z,0.51
2024-05-09T05:22:37.371Z,0.51
2024-05-09T05:23:37.495Z,0.52
2024-05-09T05:24:37.355Z,0.51
2024-05-09T05:25:37.356Z,0.52
2024-05-09T05:26:37.427Z,0.52
2024-05-09T05:27:37.340Z,0.53
2024-05-09T05:28:37.335Z,0.51
2024-05-09T05:29:37.434Z,0.52
2024-05-09T05:30:37.323Z,0.51
2024-05-09T05:31:37.349Z,0.51
2024-05-09T05:32:37.447Z,0.52
2024-05-09T05:33:37.386Z,0.52
2024-05-09T05:34:37.290Z,0.51
2024-05-09T05:35:37.386Z,0.51
2024-05-09T05:36:37.402Z,0.51
2024-05-09T05:37:37.412Z,0.51
2024-05-09T05:38:37.477Z,0.50
2024-05-09T05:39:37.486Z,0.52
2024-05-09T05:40:38.769Z,0.51
2024-05-09T05:41:37.625Z,0.53
2024-05-09T05:42:37.632Z,0.52
2024-05-09T05:43:37.686Z,0.53
2024-05-09T05:44:37.818Z,0.52
2024-05-09T05:45:38.021Z,0.52
2024-05-09T05:46:37.841Z,0.52
2024-05-09T05:47:38.022Z,0.51
2024-05-09T05:48:38.046Z,0.51
2024-05-09T05:49:38.171Z,0.52
2024-05-09T05:50:38.799Z,0.52
2024-05-09T05:51:38.129Z,0.52
2024-05-09T05:52:38.187Z,0.52
2024-05-09T05:53:38.351Z,0.52
2024-05-09T05:54:38.311Z,0.51
2024-05-09T05:55:38.368Z,0.51
2024-05-09T05:56:38.479Z,0.52
2024-05-09T05:57:38.507Z,0.51
2024-05-09T05:58:38.550Z,0.52
2024-05-09T05:59:38.761Z,0.51
2024-05-09T06:00:40.338Z,0.51
2024-05-09T06:01:38.934Z,0.51
2024-05-09T06:02:38.964Z,0.51
2024-05-09T06:03:39.398Z,0.51
2024-05-09T06:04:38.945Z,0.52
2024-05-09T06:05:39.145Z,0.51
2024-05-09T06:06:39.062Z,0.52
2024-05-09T06:07:39.123Z,0.51
2024-05-09T06:08:39.254Z,0.51
2024-05-09T06:09:39.215Z,0.52
2024-05-09T06:10:40.944Z,0.52
2024-05-09T06:11:39.411Z,0.51
2024-05-09T06:12:39.392Z,0.52
2024-05-09T06:13:39.454Z,0.51
2024-05-09T06:14:39.560Z,0.51
2024-05-09T06:15:39.578Z,0.51
2024-05-09T06:16:39.627Z,0.51
2024-05-09T06:17:39.812Z,0.52
2024-05-09T06:18:39.899Z,0.53
2024-05-09T06:19:39.866Z,0.52
2024-05-09T06:20:40.346Z,0.51
2024-05-09T06:21:39.907Z,0.52
2024-05-09T06:22:39.952Z,0.51
2024-05-09T06:23:40.143Z,0.51
2024-05-09T06:24:40.049Z,0.52
2024-05-09T06:25:40.116Z,0.52
2024-05-09T06:26:40.249Z,0.51
2024-05-09T06:27:40.213Z,0.51
2024-05-09T06:28:40.261Z,0.50
2024-05-09T06:29:40.367Z,0.50
2024-05-09T06:30:42.135Z,0.51
2024-05-09T06:31:40.348Z,0.50
2024-05-09T06:32:40.531Z,0.51
2024-05-09T06:33:40.605Z,0.50
2024-05-09T06:34:40.415Z,0.52
2024-05-09T06:35:40.702Z,0.52
2024-05-09T06:36:40.314Z,0.51
2024-05-09T06:37:40.309Z,0.51
2024-05-09T06:38:40.396Z,0.51
2024-05-09T06:39:40.311Z,0.52
2024-05-09T06:40:41.997Z,0.52
2024-05-09T06:41:40.376Z,0.52
2024-05-09T06:42:40.299Z,0.52
2024-05-09T06:43:40.279Z,0.51
2024-05-09T06:44:40.371Z,0.52
2024-05-09T06:45:40.428Z,0.51
2024-05-09T06:46:40.375Z,0.52
2024-05-09T06:47:40.559Z,0.51
2024-05-09T06:48:40.591Z,0.51
2024-05-09T06:49:40.353Z,0.51
2024-05-09T06:50:40.697Z,0.51
2024-05-09T06:51:40.276Z,0.51
2024-05-09T06:52:40.283Z,0.51
2024-05-09T06:53:40.490Z,0.52
2024-05-09T06:54:40.261Z,0.51
2024-05-09T06:55:40.247Z,0.50
2024-05-09T06:56:40.327Z,0.51
2024-05-09T06:57:43.014Z,0.52
2024-05-09T06:58:40.237Z,0.51
2024-05-09T06:59:40.275Z,0.51
2024-05-09T07:00:41.790Z,0.52
2024-05-09T07:01:40.229Z,0.51
2024-05-09T07:02:40.366Z,0.51
2024-05-09T07:03:40.252Z,0.52
2024-05-09T07:04:40.263Z,0.52
2024-05-09T07:05:40.325Z,0.52
2024-05-09T07:06:40.250Z,0.52
2024-05-09T07:07:40.294Z,0.52
2024-05-09T07:08:40.714Z,0.51
2024-05-09T07:09:40.409Z,0.52
2024-05-09T07:10:40.490Z,0.51
2024-05-09T07:11:40.696Z,0.50
2024-05-09T07:12:40.565Z,0.52
2024-05-09T07:13:40.624Z,0.50
2024-05-09T07:14:40.724Z,0.51
2024-05-09T07:15:40.793Z,0.50
2024-05-09T07:16:40.778Z,0.51
2024-05-09T07:17:40.943Z,0.51
2024-05-09T07:18:41.186Z,0.51
2024-05-09T07:19:41.053Z,0.51
2024-05-09T07:20:41.149Z,0.52
2024-05-09T07:21:41.026Z,0.51
2024-05-09T07:22:41.081Z,0.52
2024-05-09T07:23:42.480Z,0.51
2024-05-09T07:24:41.301Z,0.50
2024-05-09T07:25:41.598Z,0.52
2024-05-09T07:26:41.503Z,0.53
2024-05-09T07:27:41.456Z,0.52
2024-05-09T07:28:41.489Z,0.52
2024-05-09T07:29:41.575Z,0.52
2024-05-09T07:30:41.608Z,0.52
2024-05-09T07:31:41.643Z,0.52
2024-05-09T07:32:41.820Z,0.51
2024-05-09T07:33:41.814Z,0.51
2024-05-09T07:34:41.886Z,0.51
2024-05-09T07:35:41.868Z,0.51
2024-05-09T07:36:41.899Z,0.51
2024-05-09T07:37:41.959Z,0.52
2024-05-09T07:38:42.052Z,0.51
2024-05-09T07:39:42.051Z,0.50
2024-05-09T07:40:42.165Z,0.52
2024-05-09T07:41:42.177Z,0.52
2024-05-09T07:42:42.180Z,0.51
2024-05-09T07:43:42.220Z,0.51
2024-05-09T07:44:42.301Z,0.51
2024-05-09T07:45:50.623Z,0.52
2024-05-09T07:47:48.276Z,0.52
2024-05-09T07:51:32.252Z,0.52
2024-05-09T07:53:34.278Z,0.52
2024-05-09T07:53:46.407Z,0.52
2024-05-09T07:54:43.325Z,0.52
2024-05-09T07:55:42.394Z,0.52
2024-05-09T07:56:42.379Z,0.53
2024-05-09T07:57:42.210Z,0.54
2024-05-09T07:58:42.158Z,0.55
2024-05-09T07:59:42.148Z,0.56
2024-05-09T08:00:42.242Z,0.55
2024-05-09T08:01:42.262Z,0.55
2024-05-09T08:02:42.143Z,0.54
2024-05-09T08:03:42.278Z,0.54
2024-05-09T08:04:42.147Z,0.53
2024-05-09T08:05:42.257Z,0.53
2024-05-09T08:06:42.111Z,0.52
2024-05-09T08:07:42.088Z,0.53
2024-05-09T08:08:42.118Z,0.52
2024-05-09T08:09:42.153Z,0.52
2024-05-09T08:10:42.188Z,0.52
2024-05-09T08:11:42.143Z,0.52
2024-05-09T08:12:42.040Z,0.52
2024-05-09T08:13:42.003Z,0.52
2024-05-09T08:14:41.992Z,0.52
2024-05-09T08:15:42.009Z,0.53
2024-05-09T08:16:41.964Z,0.52
2024-05-09T08:17:42.063Z,0.52
2024-05-09T08:18:42.172Z,0.52
2024-05-09T08:19:42.122Z,0.52
2024-05-09T08:20:42.125Z,0.51
2024-05-09T08:21:42.222Z,0.52
2024-05-09T08:22:42.223Z,0.51
2024-05-09T08:23:42.285Z,0.52
2024-05-09T08:24:42.372Z,0.50
2024-05-09T08:25:42.356Z,0.52
2024-05-09T08:26:42.401Z,0.52
2024-05-09T08:27:42.462Z,0.51
2024-05-09T08:28:42.492Z,0.51
2024-05-09T08:29:42.564Z,0.52
2024-05-09T08:30:42.685Z,0.53
2024-05-09T08:31:42.647Z,0.51
2024-05-09T08:32:42.726Z,0.52
2024-05-09T08:33:42.822Z,0.52
2024-05-09T08:34:42.824Z,0.52
2024-05-09T08:35:42.802Z,0.52
2024-05-09T08:36:42.897Z,0.51
2024-05-09T08:37:42.951Z,0.52
2024-05-09T08:38:42.947Z,0.51
2024-05-09T08:39:43.033Z,0.51
2024-05-09T08:40:43.257Z,0.51
2024-05-09T08:41:43.100Z,0.51
2024-05-09T08:42:43.178Z,0.51
2024-05-09T08:43:43.155Z,0.51
2024-05-09T08:44:43.191Z,0.51
2024-05-09T08:45:44.778Z,0.51
2024-05-09T08:46:43.286Z,0.51
2024-05-09T08:47:43.441Z,0.51
2024-05-09T08:48:43.529Z,0.51
2024-05-09T08:49:43.423Z,0.51
2024-05-09T08:50:43.800Z,0.52
2024-05-09T08:51:43.549Z,0.51
2024-05-09T08:52:43.572Z,0.51
2024-05-09T08:53:43.596Z,0.52
2024-05-09T08:54:43.661Z,0.51
2024-05-09T08:55:44.468Z,0.51
2024-05-09T08:56:43.759Z,0.53
2024-05-09T08:57:43.838Z,0.51
2024-05-09T08:58:43.847Z,0.52
2024-05-09T08:59:43.893Z,0.52
2024-05-09T09:00:44.193Z,0.52
2024-05-09T09:01:44.145Z,0.53
2024-05-09T09:02:44.375Z,0.53
2024-05-09T09:03:44.260Z,0.53
2024-05-09T09:04:44.258Z,0.52
2024-05-09T09:05:44.222Z,0.53
2024-05-09T09:06:44.426Z,0.52
2024-05-09T09:07:44.273Z,0.51
2024-05-09T09:08:44.334Z,0.52
2024-05-09T09:09:44.450Z,0.52
2024-05-09T09:10:44.639Z,0.52
2024-05-09T09:11:44.505Z,0.52
2024-05-09T09:12:44.552Z,0.53
2024-05-09T09:13:44.575Z,0.53
2024-05-09T09:14:44.619Z,0.52
2024-05-09T09:15:44.678Z,0.52
2024-05-09T09:16:44.718Z,0.53
2024-05-09T09:17:44.857Z,0.53
2024-05-09T09:18:45.119Z,0.53
2024-05-09T09:19:44.953Z,0.53
2024-05-09T09:20:45.027Z,0.55
2024-05-09T09:21:44.990Z,0.55
2024-05-09T09:22:45.016Z,0.53
2024-05-09T09:23:45.033Z,0.53
2024-05-09T09:24:45.119Z,0.54
2024-05-09T09:25:45.119Z,0.53
2024-05-09T09:26:45.174Z,0.53
2024-05-09T09:27:45.270Z,0.55
2024-05-09T09:28:45.261Z,0.53
2024-05-09T09:29:45.298Z,0.54
2024-05-09T09:30:45.357Z,0.54
2024-05-09T09:31:45.379Z,0.54
2024-05-09T09:32:45.497Z,0.54
2024-05-09T09:33:45.626Z,0.55
2024-05-09T09:34:45.609Z,0.55
2024-05-09T09:35:45.548Z,0.54
2024-05-09T09:36:45.683Z,0.54
2024-05-09T09:37:45.668Z,0.54
2024-05-09T09:38:45.686Z,0.55
2024-05-09T09:39:48.902Z,0.55
2024-05-09T09:40:49.174Z,0.56
2024-05-09T09:41:45.726Z,0.56
2024-05-09T09:42:45.747Z,0.56
2024-05-09T09:43:45.711Z,0.56
2024-05-09T09:44:51.379Z,0.55
2024-05-09T09:45:46.731Z,0.56
2024-05-09T09:46:45.675Z,0.56
2024-05-09T09:47:45.922Z,0.56
2024-05-09T09:48:45.773Z,0.56
2024-05-09T09:49:45.729Z,0.56
2024-05-09T09:50:45.637Z,0.56
2024-05-09T09:51:45.684Z,0.55
2024-05-09T09:52:45.599Z,0.56
2024-05-09T09:53:45.599Z,0.57
2024-05-09T09:54:45.719Z,0.56
2024-05-09T09:55:45.664Z,0.55
2024-05-09T09:56:45.710Z,0.55
2024-05-09T09:57:45.759Z,0.57
2024-05-09T09:58:45.823Z,0.56
2024-05-09T09:59:45.850Z,0.55
2024-05-09T10:00:46.187Z,0.55
2024-05-09T10:01:46.000Z,0.55
2024-05-09T10:02:46.009Z,0.56
2024-05-09T10:03:46.274Z,0.56
2024-05-09T10:04:46.156Z,0.55
2024-05-09T10:05:47.375Z,0.55
2024-05-09T10:06:46.200Z,0.55
2024-05-09T10:07:46.216Z,0.55
2024-05-09T10:08:46.274Z,0.56
2024-05-09T10:09:46.324Z,0.56
2024-05-09T10:10:46.587Z,0.56
2024-05-09T10:11:51.809Z,0.55
2024-05-09T10:12:47.455Z,0.55
2024-05-09T10:13:46.402Z,0.55
2024-05-09T10:14:46.380Z,0.55
2024-05-09T10:15:46.607Z,0.56
2024-05-09T10:16:46.364Z,0.56
2024-05-09T10:17:46.471Z,0.57
2024-05-09T10:18:46.522Z,0.58
2024-05-09T10:19:46.382Z,0.58
2024-05-09T10:20:46.369Z,0.57
2024-05-09T10:21:46.395Z,0.57
2024-05-09T10:22:46.402Z,0.56
2024-05-09T10:23:46.463Z,0.57
2024-05-09T10:24:46.519Z,0.58
2024-05-09T10:25:46.535Z,0.58
2024-05-09T10:26:46.589Z,0.58
2024-05-09T10:27:46.684Z,0.59
2024-05-09T10:28:46.693Z,0.58
2024-05-09T10:29:46.718Z,0.60
2024-05-09T10:30:48.084Z,0.58
2024-05-09T10:31:46.834Z,0.60
2024-05-09T10:32:46.790Z,0.60
2024-05-09T10:33:46.824Z,0.58
2024-05-09T10:34:46.721Z,0.60
2024-05-09T10:35:46.697Z,0.59
2024-05-09T10:36:46.738Z,0.59
2024-05-09T10:37:46.683Z,0.60
2024-05-09T10:38:46.671Z,0.61
2024-05-09T10:39:46.685Z,0.60
2024-05-09T10:40:46.637Z,0.61
2024-05-09T10:41:46.636Z,0.61
2024-05-09T10:42:46.639Z,0.60
2024-05-09T10:43:46.629Z,0.60
2024-05-09T10:44:46.605Z,0.60
2024-05-09T10:45:46.673Z,0.59
2024-05-09T10:46:46.591Z,0.61
2024-05-09T10:47:46.649Z,0.62
2024-05-09T10:48:46.753Z,0.60
2024-05-09T10:49:46.694Z,0.62
2024-05-09T10:50:46.560Z,0.61
2024-05-09T10:51:46.642Z,0.61
2024-05-09T10:52:46.536Z,0.61
2024-05-09T10:53:46.563Z,0.60
2024-05-09T10:54:46.557Z,0.61
2024-05-09T10:55:46.819Z,0.60
2024-05-09T10:56:46.497Z,0.61
2024-05-09T10:57:46.538Z,0.61
2024-05-09T10:58:46.490Z,0.61
2024-05-09T10:59:46.460Z,0.62
2024-05-09T11:00:46.515Z,0.62
2024-05-09T11:01:46.557Z,0.62
2024-05-09T11:02:46.438Z,0.63
2024-05-09T11:03:46.786Z,0.60
2024-05-09T11:04:46.591Z,0.62
2024-05-09T11:05:46.588Z,0.62
2024-05-09T11:06:46.615Z,0.62
2024-05-09T11:07:46.622Z,0.61
2024-05-09T11:08:46.686Z,0.63
2024-05-09T11:09:46.790Z,0.64
2024-05-09T11:10:46.844Z,0.63
2024-05-09T11:11:46.868Z,0.62
2024-05-09T11:12:46.856Z,0.63
2024-05-09T11:13:46.895Z,0.63
2024-05-09T11:14:46.928Z,0.63
2024-05-09T11:15:47.045Z,0.62
2024-05-09T11:16:47.032Z,0.64
2024-05-09T11:17:47.175Z,0.63
2024-05-09T11:18:47.199Z,0.64
2024-05-09T11:19:47.200Z,0.63
2024-05-09T11:20:47.251Z,0.64
2024-05-09T11:21:47.343Z,0.64
2024-05-09T11:22:47.331Z,0.64
2024-05-09T11:23:47.398Z,0.64
2024-05-09T11:24:47.474Z,0.64
2024-05-09T11:25:47.472Z,0.63
2024-05-09T11:26:47.508Z,0.64
2024-05-09T11:27:47.592Z,0.63
2024-05-09T11:28:47.600Z,0.64
2024-05-09T11:29:47.643Z,0.65
2024-05-09T11:30:47.788Z,0.65
2024-05-09T11:31:47.850Z,0.64
2024-05-09T11:32:47.918Z,0.64
2024-05-09T11:33:47.979Z,0.65
2024-05-09T11:34:47.885Z,0.65
2024-05-09T11:35:47.956Z,0.65
2024-05-09T11:36:48.003Z,0.64
2024-05-09T11:37:48.040Z,0.64
2024-05-09T11:38:48.071Z,0.65
2024-05-09T11:39:48.168Z,0.63
2024-05-09T11:40:48.911Z,0.63
2024-05-09T11:41:48.217Z,0.64
2024-05-09T11:42:50.803Z,0.65
2024-05-09T11:43:48.292Z,0.63
2024-05-09T11:44:48.242Z,0.65
2024-05-09T11:45:48.241Z,0.65
2024-05-09T11:46:48.218Z,0.64
2024-05-09T11:47:48.346Z,0.66
2024-05-09T11:48:48.377Z,0.65
2024-05-09T11:49:48.252Z,0.64
2024-05-09T11:50:48.196Z,0.64
2024-05-09T11:51:48.192Z,0.63
2024-05-09T11:52:48.174Z,0.63
2024-05-09T11:53:48.154Z,0.64
2024-05-09T11:54:48.161Z,0.65
2024-05-09T11:55:48.134Z,0.64
2024-05-09T11:56:48.130Z,0.63
2024-05-09T11:57:48.170Z,0.63
2024-05-09T11:58:48.101Z,0.63
2024-05-09T11:59:48.105Z,0.64
2024-05-09T12:00:48.214Z,0.63
2024-05-09T12:01:48.122Z,0.63
2024-05-09T12:02:48.073Z,0.66
2024-05-09T12:03:48.167Z,0.63
2024-05-09T12:04:48.244Z,0.63
2024-05-09T12:05:48.152Z,0.62
2024-05-09T12:06:48.098Z,0.64
2024-05-09T12:07:48.128Z,0.63
2024-05-09T12:08:48.162Z,0.64
2024-05-09T12:09:48.950Z,0.64
2024-05-09T12:10:48.384Z,0.63
2024-05-09T12:11:48.341Z,0.63
2024-05-09T12:12:48.369Z,0.62
2024-05-09T12:13:48.405Z,0.64
2024-05-09T12:14:48.452Z,0.62
2024-05-09T12:15:48.533Z,0.61
2024-05-09T12:16:48.684Z,0.62
2024-05-09T12:17:50.766Z,0.63
2024-05-09T12:18:48.737Z,0.63
2024-05-09T12:19:48.777Z,0.62
2024-05-09T12:20:48.696Z,0.62
2024-05-09T12:21:48.768Z,0.61
2024-05-09T12:22:48.787Z,0.62
2024-05-09T12:23:48.835Z,0.60
2024-05-09T12:24:48.948Z,0.60
2024-05-09T12:25:48.934Z,0.60
2024-05-09T12:26:48.958Z,0.60
2024-05-09T12:27:49.043Z,0.61
2024-05-09T12:28:49.052Z,0.60
2024-05-09T12:29:49.092Z,0.61
2024-05-09T12:30:49.166Z,0.61
2024-05-09T12:31:49.212Z,0.60
2024-05-09T12:32:49.473Z,0.60
2024-05-09T12:33:49.380Z,0.60
2024-05-09T12:34:49.316Z,0.59
2024-05-09T12:35:51.002Z,0.60
2024-05-09T12:36:49.512Z,0.60
2024-05-09T12:37:49.449Z,0.58
2024-05-09T12:38:49.497Z,0.59
2024-05-09T12:39:49.608Z,0.58
2024-05-09T12:40:49.643Z,0.59
2024-05-09T12:41:49.627Z,0.59
2024-05-09T12:42:49.772Z,0.57
2024-05-09T12:43:49.697Z,0.60
2024-05-09T12:44:49.744Z,0.60
2024-05-09T12:45:49.807Z,0.58
2024-05-09T12:46:49.839Z,0.59
2024-05-09T12:47:50.045Z,0.58
2024-05-09T12:48:50.101Z,0.58
2024-05-09T12:49:50.049Z,0.59
2024-05-09T12:50:50.063Z,0.59
2024-05-09T12:51:50.079Z,0.59
2024-05-09T12:52:50.123Z,0.58
2024-05-09T12:53:50.180Z,0.59
2024-05-09T12:54:50.264Z,0.58
2024-05-09T12:55:56.718Z,0.59
2024-05-09T12:56:51.243Z,0.58
2024-05-09T12:57:50.259Z,0.59
2024-05-09T12:58:50.219Z,0.59
2024-05-09T12:59:50.201Z,0.58
2024-05-09T13:00:50.275Z,0.59
2024-05-09T13:01:50.354Z,0.58
2024-05-09T13:02:50.241Z,0.58
2024-05-09T13:03:50.497Z,0.59
2024-05-09T13:04:50.241Z,0.57
2024-05-09T13:05:50.317Z,0.57
2024-05-09T13:06:50.229Z,0.59
2024-05-09T13:07:50.256Z,0.58
2024-05-09T13:08:50.314Z,0.57
2024-05-09T13:09:50.370Z,0.58
2024-05-09T13:10:50.492Z,0.58
2024-05-09T13:11:50.431Z,0.58
2024-05-09T13:12:50.555Z,0.58
2024-05-09T13:13:50.519Z,0.56
2024-05-09T13:14:50.565Z,0.57
2024-05-09T13:15:50.637Z,0.57
2024-05-09T13:16:50.715Z,0.56
2024-05-09T13:17:50.744Z,0.57
2024-05-09T13:18:50.961Z,0.57
2024-05-09T13:19:50.803Z,0.57
2024-05-09T13:20:50.854Z,0.57
2024-05-09T13:21:50.921Z,0.57
2024-05-09T13:22:50.938Z,0.57
2024-05-09T13:23:51.012Z,0.58
2024-05-09T13:24:51.049Z,0.56
2024-05-09T13:25:51.078Z,0.56
2024-05-09T13:26:51.122Z,0.56